sensor_id;sensor_type;location;lat;lon;timestamp;temperature;humidity
15997;DHT22;8103;51.340;12.326;2022-09-27T00:00:33;12.70;99.90
15997;DHT22;8103;51.340;12.326;2022-09-27T00:03:00;12.60;99.90
15997;DHT22;8103;51.340;12.326;2022-09-27T00:05:28;12.70;99.90
15997;DHT22;8103;51.340;12.326;2022-09-27T00:07:55;12.70;99.90
15997;DHT22;8103;51.340;12.326;2022-09-27T00:10:22;12.70;99.90
15997;DHT22;8103;51.340;12.326;2022-09-27T00:12:48;12.70;99.90
15997;DHT22;8103;51.340;12.326;2022-09-27T00:15:16;12.70;99.90
15997;DHT22;8103;51.340;12.326;2022-09-27T00:17:43;12.70;99.90
15997;DHT22;8103;51.340;12.326;2022-09-27T00:20:10;12.70;99.90
15997;DHT22;8103;51.340;12.326;2022-09-27T00:22:37;12.70;99.90
15997;DHT22;8103;51.340;12.326;2022-09-27T00:25:04;12.70;99.90
15997;DHT22;8103;51.340;12.326;2022-09-27T00:27:32;12.70;99.90
15997;DHT22;8103;51.340;12.326;2022-09-27T00:29:59;12.60;99.90
15997;DHT22;8103;51.340;12.326;2022-09-27T00:32:26;12.60;99.90
15997;DHT22;8103;51.340;12.326;2022-09-27T00:34:53;12.50;99.90
15997;DHT22;8103;51.340;12.326;2022-09-27T00:37:20;12.50;99.90
15997;DHT22;8103;51.340;12.326;2022-09-27T00:39:47;12.50;99.90
15997;DHT22;8103;51.340;12.326;2022-09-27T00:42:14;12.40;99.90
15997;DHT22;8103;51.340;12.326;2022-09-27T00:47:23;12.40;99.90
15997;DHT22;8103;51.340;12.326;2022-09-27T00:50:31;12.50;99.90
15997;DHT22;8103;51.340;12.326;2022-09-27T00:55:42;12.50;99.90
15997;DHT22;8103;51.340;12.326;2022-09-27T00:58:12;12.50;99.90
15997;DHT22;8103;51.340;12.326;2022-09-27T01:00:44;12.50;99.90
15997;DHT22;8103;51.340;12.326;2022-09-27T01:03:24;12.50;99.90
15997;DHT22;8103;51.340;12.326;2022-09-27T01:05:52;12.50;99.90
15997;DHT22;8103;51.340;12.326;2022-09-27T01:08:20;12.50;99.90
15997;DHT22;8103;51.340;12.326;2022-09-27T01:11:02;12.50;99.90
15997;DHT22;8103;51.340;12.326;2022-09-27T01:16:31;12.50;99.90
15997;DHT22;8103;51.340;12.326;2022-09-27T01:19:37;12.50;99.90
15997;DHT22;8103;51.340;12.326;2022-09-27T01:22:05;12.50;99.90
15997;DHT22;8103;51.340;12.326;2022-09-27T01:25:02;12.50;99.90
15997;DHT22;8103;51.340;12.326;2022-09-27T01:28:13;12.50;99.90
15997;DHT22;8103;51.340;12.326;2022-09-27T01:31:20;12.50;99.90
15997;DHT22;8103;51.340;12.326;2022-09-27T01:34:03;12.50;99.90
15997;DHT22;8103;51.340;12.326;2022-09-27T01:37:08;12.50;99.90
15997;DHT22;8103;51.340;12.326;2022-09-27T01:39:50;12.50;99.90
15997;DHT22;8103;51.340;12.326;2022-09-27T01:42:24;12.50;99.90
15997;DHT22;8103;51.340;12.326;2022-09-27T01:45:14;12.50;99.90
15997;DHT22;8103;51.340;12.326;2022-09-27T01:47:53;12.50;99.90
15997;DHT22;8103;51.340;12.326;2022-09-27T01:50:31;12.40;99.90
15997;DHT22;8103;51.340;12.326;2022-09-27T01:53:06;12.50;99.90
15997;DHT22;8103;51.340;12.326;2022-09-27T01:55:38;12.40;99.90
15997;DHT22;8103;51.340;12.326;2022-09-27T01:58:10;12.50;99.90
15997;DHT22;8103;51.340;12.326;2022-09-27T02:00:43;12.50;99.90
15997;DHT22;8103;51.340;12.326;2022-09-27T02:03:14;12.50;99.90
15997;DHT22;8103;51.340;12.326;2022-09-27T02:05:57;12.50;99.90
15997;DHT22;8103;51.340;12.326;2022-09-27T02:11:28;12.50;99.90
15997;DHT22;8103;51.340;12.326;2022-09-27T02:14:05;12.50;99.90
15997;DHT22;8103;51.340;12.326;2022-09-27T02:16:51;12.50;99.90
15997;DHT22;8103;51.340;12.326;2022-09-27T02:19:39;12.50;99.90
15997;DHT22;8103;51.340;12.326;2022-09-27T02:23:06;12.50;99.90
15997;DHT22;8103;51.340;12.326;2022-09-27T02:30:53;12.40;99.90
15997;DHT22;8103;51.340;12.326;2022-09-27T02:33:25;12.40;99.90
15997;DHT22;8103;51.340;12.326;2022-09-27T02:35:53;12.40;99.90
15997;DHT22;8103;51.340;12.326;2022-09-27T02:38:20;12.40;99.90
15997;DHT22;8103;51.340;12.326;2022-09-27T02:40:47;12.40;99.90
15997;DHT22;8103;51.340;12.326;2022-09-27T02:43:16;12.40;99.90
15997;DHT22;8103;51.340;12.326;2022-09-27T02:48:46;12.40;99.90
15997;DHT22;8103;51.340;12.326;2022-09-27T02:54:26;12.40;99.90
15997;DHT22;8103;51.340;12.326;2022-09-27T02:57:22;12.40;99.90
15997;DHT22;8103;51.340;12.326;2022-09-27T03:00:03;12.30;99.90
15997;DHT22;8103;51.340;12.326;2022-09-27T03:02:35;12.30;99.90
15997;DHT22;8103;51.340;12.326;2022-09-27T03:05:12;12.30;99.90
15997;DHT22;8103;51.340;12.326;2022-09-27T03:07:40;12.20;99.90
15997;DHT22;8103;51.340;12.326;2022-09-27T03:10:07;12.20;99.90
15997;DHT22;8103;51.340;12.326;2022-09-27T03:12:41;12.10;99.90
15997;DHT22;8103;51.340;12.326;2022-09-27T03:15:08;12.10;99.90
15997;DHT22;8103;51.340;12.326;2022-09-27T03:17:37;12.00;99.90
15997;DHT22;8103;51.340;12.326;2022-09-27T03:20:04;12.00;99.90
15997;DHT22;8103;51.340;12.326;2022-09-27T03:22:31;12.00;99.90
15997;DHT22;8103;51.340;12.326;2022-09-27T03:24:57;12.00;99.90
15997;DHT22;8103;51.340;12.326;2022-09-27T03:27:24;12.00;99.90
15997;DHT22;8103;51.340;12.326;2022-09-27T03:29:51;12.00;99.90
15997;DHT22;8103;51.340;12.326;2022-09-27T03:32:18;12.00;99.90
15997;DHT22;8103;51.340;12.326;2022-09-27T03:34:44;12.00;99.90
15997;DHT22;8103;51.340;12.326;2022-09-27T03:37:11;12.00;99.90
15997;DHT22;8103;51.340;12.326;2022-09-27T03:39:38;11.90;99.90
15997;DHT22;8103;51.340;12.326;2022-09-27T03:42:06;11.90;99.90
15997;DHT22;8103;51.340;12.326;2022-09-27T03:44:32;11.80;99.90
15997;DHT22;8103;51.340;12.326;2022-09-27T03:46:59;11.70;99.90
15997;DHT22;8103;51.340;12.326;2022-09-27T03:49:26;11.60;99.90
15997;DHT22;8103;51.340;12.326;2022-09-27T03:51:52;11.60;99.90
15997;DHT22;8103;51.340;12.326;2022-09-27T03:54:20;11.60;99.90
15997;DHT22;8103;51.340;12.326;2022-09-27T03:56:46;11.50;99.90
15997;DHT22;8103;51.340;12.326;2022-09-27T03:59:13;11.50;99.90
15997;DHT22;8103;51.340;12.326;2022-09-27T04:01:40;11.40;99.90
15997;DHT22;8103;51.340;12.326;2022-09-27T04:04:07;11.30;99.90
15997;DHT22;8103;51.340;12.326;2022-09-27T04:06:36;11.30;99.90
15997;DHT22;8103;51.340;12.326;2022-09-27T04:09:03;11.20;99.90
15997;DHT22;8103;51.340;12.326;2022-09-27T04:11:30;11.20;99.90
15997;DHT22;8103;51.340;12.326;2022-09-27T04:13:57;11.10;99.90
15997;DHT22;8103;51.340;12.326;2022-09-27T04:16:24;11.10;99.90
15997;DHT22;8103;51.340;12.326;2022-09-27T04:18:51;11.00;99.90
15997;DHT22;8103;51.340;12.326;2022-09-27T04:21:18;11.00;99.90
15997;DHT22;8103;51.340;12.326;2022-09-27T04:23:46;11.00;99.90
15997;DHT22;8103;51.340;12.326;2022-09-27T04:26:12;11.00;99.90
15997;DHT22;8103;51.340;12.326;2022-09-27T04:28:39;11.00;99.90
15997;DHT22;8103;51.340;12.326;2022-09-27T04:31:06;11.00;99.90
15997;DHT22;8103;51.340;12.326;2022-09-27T04:33:33;11.00;99.90
15997;DHT22;8103;51.340;12.326;2022-09-27T04:36:00;11.00;99.90
15997;DHT22;8103;51.340;12.326;2022-09-27T04:38:45;11.00;99.90
15997;DHT22;8103;51.340;12.326;2022-09-27T04:41:14;10.90;99.90
15997;DHT22;8103;51.340;12.326;2022-09-27T04:43:40;10.90;99.90
15997;DHT22;8103;51.340;12.326;2022-09-27T04:46:07;10.90;99.90
15997;DHT22;8103;51.340;12.326;2022-09-27T04:48:34;10.90;99.90
15997;DHT22;8103;51.340;12.326;2022-09-27T04:51:01;10.90;99.90
15997;DHT22;8103;51.340;12.326;2022-09-27T04:53:28;10.90;99.90
15997;DHT22;8103;51.340;12.326;2022-09-27T04:55:55;10.90;99.90
15997;DHT22;8103;51.340;12.326;2022-09-27T04:58:22;10.90;99.90
15997;DHT22;8103;51.340;12.326;2022-09-27T05:00:49;11.00;99.90
15997;DHT22;8103;51.340;12.326;2022-09-27T05:03:22;11.00;99.90
15997;DHT22;8103;51.340;12.326;2022-09-27T05:05:48;11.10;99.90
15997;DHT22;8103;51.340;12.326;2022-09-27T05:08:15;11.10;99.90
15997;DHT22;8103;51.340;12.326;2022-09-27T05:10:42;11.10;99.90
15997;DHT22;8103;51.340;12.326;2022-09-27T05:13:09;11.10;99.90
15997;DHT22;8103;51.340;12.326;2022-09-27T05:15:36;11.10;99.90
15997;DHT22;8103;51.340;12.326;2022-09-27T05:18:03;11.10;99.90
15997;DHT22;8103;51.340;12.326;2022-09-27T05:20:29;11.10;99.90
15997;DHT22;8103;51.340;12.326;2022-09-27T05:22:56;11.10;99.90
15997;DHT22;8103;51.340;12.326;2022-09-27T05:25:23;11.10;99.90
15997;DHT22;8103;51.340;12.326;2022-09-27T05:27:50;11.20;99.90
15997;DHT22;8103;51.340;12.326;2022-09-27T05:30:18;11.20;99.90
15997;DHT22;8103;51.340;12.326;2022-09-27T05:32:46;11.20;99.90
15997;DHT22;8103;51.340;12.326;2022-09-27T05:35:16;11.20;99.90
15997;DHT22;8103;51.340;12.326;2022-09-27T05:37:53;11.20;99.90
15997;DHT22;8103;51.340;12.326;2022-09-27T05:40:21;11.20;99.90
15997;DHT22;8103;51.340;12.326;2022-09-27T05:43:07;11.30;99.90
15997;DHT22;8103;51.340;12.326;2022-09-27T05:45:36;11.30;99.90
15997;DHT22;8103;51.340;12.326;2022-09-27T05:48:03;11.30;99.90
15997;DHT22;8103;51.340;12.326;2022-09-27T05:50:30;11.30;99.90
15997;DHT22;8103;51.340;12.326;2022-09-27T05:52:58;11.30;99.90
15997;DHT22;8103;51.340;12.326;2022-09-27T05:55:24;11.30;99.90
15997;DHT22;8103;51.340;12.326;2022-09-27T05:58:06;11.30;99.90
15997;DHT22;8103;51.340;12.326;2022-09-27T06:00:34;11.30;99.90
15997;DHT22;8103;51.340;12.326;2022-09-27T06:03:05;11.40;99.90
15997;DHT22;8103;51.340;12.326;2022-09-27T06:05:37;11.40;99.90
15997;DHT22;8103;51.340;12.326;2022-09-27T06:08:09;11.40;99.90
15997;DHT22;8103;51.340;12.326;2022-09-27T06:10:37;11.40;99.90
15997;DHT22;8103;51.340;12.326;2022-09-27T06:13:07;11.50;99.90
15997;DHT22;8103;51.340;12.326;2022-09-27T06:15:37;11.50;99.90
15997;DHT22;8103;51.340;12.326;2022-09-27T06:18:12;11.50;99.90
15997;DHT22;8103;51.340;12.326;2022-09-27T06:20:42;11.40;99.90
15997;DHT22;8103;51.340;12.326;2022-09-27T06:23:11;11.40;99.90
15997;DHT22;8103;51.340;12.326;2022-09-27T06:25:38;11.40;99.90
15997;DHT22;8103;51.340;12.326;2022-09-27T06:28:05;11.50;99.90
15997;DHT22;8103;51.340;12.326;2022-09-27T06:30:32;11.50;99.90
15997;DHT22;8103;51.340;12.326;2022-09-27T06:33:00;11.50;99.90
15997;DHT22;8103;51.340;12.326;2022-09-27T06:35:28;11.50;99.90
15997;DHT22;8103;51.340;12.326;2022-09-27T06:37:56;11.50;99.90
15997;DHT22;8103;51.340;12.326;2022-09-27T06:40:23;11.50;99.90
15997;DHT22;8103;51.340;12.326;2022-09-27T06:42:52;11.60;99.90
15997;DHT22;8103;51.340;12.326;2022-09-27T06:45:19;11.60;99.90
15997;DHT22;8103;51.340;12.326;2022-09-27T06:47:45;11.60;99.90
15997;DHT22;8103;51.340;12.326;2022-09-27T06:50:12;11.70;99.90
15997;DHT22;8103;51.340;12.326;2022-09-27T06:52:48;11.70;99.90
15997;DHT22;8103;51.340;12.326;2022-09-27T06:55:16;11.70;99.90
15997;DHT22;8103;51.340;12.326;2022-09-27T06:57:42;11.70;99.90
15997;DHT22;8103;51.340;12.326;2022-09-27T07:00:28;11.70;99.90
15997;DHT22;8103;51.340;12.326;2022-09-27T07:02:57;11.70;99.90
15997;DHT22;8103;51.340;12.326;2022-09-27T07:05:29;11.80;99.90
15997;DHT22;8103;51.340;12.326;2022-09-27T07:07:57;11.80;99.90
15997;DHT22;8103;51.340;12.326;2022-09-27T07:10:26;11.90;99.90
15997;DHT22;8103;51.340;12.326;2022-09-27T07:12:53;12.00;99.90
15997;DHT22;8103;51.340;12.326;2022-09-27T07:15:20;12.00;99.90
15997;DHT22;8103;51.340;12.326;2022-09-27T07:17:55;12.10;99.90
15997;DHT22;8103;51.340;12.326;2022-09-27T07:20:27;12.10;99.90
15997;DHT22;8103;51.340;12.326;2022-09-27T07:22:58;12.20;99.90
15997;DHT22;8103;51.340;12.326;2022-09-27T07:25:25;12.20;99.90
15997;DHT22;8103;51.340;12.326;2022-09-27T07:27:51;12.20;99.90
15997;DHT22;8103;51.340;12.326;2022-09-27T07:30:19;12.20;99.90
15997;DHT22;8103;51.340;12.326;2022-09-27T07:32:47;12.20;99.90
15997;DHT22;8103;51.340;12.326;2022-09-27T07:35:14;12.20;99.90
15997;DHT22;8103;51.340;12.326;2022-09-27T07:37:41;12.20;99.90
15997;DHT22;8103;51.340;12.326;2022-09-27T07:40:08;12.20;99.90
15997;DHT22;8103;51.340;12.326;2022-09-27T07:42:36;12.20;99.90
15997;DHT22;8103;51.340;12.326;2022-09-27T07:45:08;12.10;99.90
15997;DHT22;8103;51.340;12.326;2022-09-27T07:47:37;12.10;99.90
15997;DHT22;8103;51.340;12.326;2022-09-27T07:50:08;12.00;99.90
15997;DHT22;8103;51.340;12.326;2022-09-27T07:52:43;12.00;99.90
15997;DHT22;8103;51.340;12.326;2022-09-27T07:55:14;12.10;99.90
15997;DHT22;8103;51.340;12.326;2022-09-27T07:57:41;12.20;99.90
15997;DHT22;8103;51.340;12.326;2022-09-27T08:00:15;12.20;99.90
15997;DHT22;8103;51.340;12.326;2022-09-27T08:02:43;12.30;99.90
15997;DHT22;8103;51.340;12.326;2022-09-27T08:05:12;12.40;99.90
15997;DHT22;8103;51.340;12.326;2022-09-27T08:07:39;12.60;99.90
15997;DHT22;8103;51.340;12.326;2022-09-27T08:10:07;12.60;99.90
15997;DHT22;8103;51.340;12.326;2022-09-27T08:12:34;12.70;99.90
15997;DHT22;8103;51.340;12.326;2022-09-27T08:15:02;12.70;99.90
15997;DHT22;8103;51.340;12.326;2022-09-27T08:17:31;12.70;99.90
15997;DHT22;8103;51.340;12.326;2022-09-27T08:19:58;12.70;99.90
15997;DHT22;8103;51.340;12.326;2022-09-27T08:22:24;12.70;99.90
15997;DHT22;8103;51.340;12.326;2022-09-27T08:24:51;12.60;99.90
15997;DHT22;8103;51.340;12.326;2022-09-27T08:27:18;12.50;99.90
15997;DHT22;8103;51.340;12.326;2022-09-27T08:29:45;12.30;99.90
15997;DHT22;8103;51.340;12.326;2022-09-27T08:32:13;12.20;99.90
15997;DHT22;8103;51.340;12.326;2022-09-27T08:34:46;12.10;99.90
15997;DHT22;8103;51.340;12.326;2022-09-27T08:37:13;12.00;99.90
15997;DHT22;8103;51.340;12.326;2022-09-27T08:39:40;11.80;99.90
15997;DHT22;8103;51.340;12.326;2022-09-27T08:44:49;11.50;99.90
15997;DHT22;8103;51.340;12.326;2022-09-27T08:47:48;11.50;99.90
15997;DHT22;8103;51.340;12.326;2022-09-27T08:50:25;11.40;99.90
15997;DHT22;8103;51.340;12.326;2022-09-27T08:55:50;11.50;99.90
15997;DHT22;8103;51.340;12.326;2022-09-27T08:58:29;11.50;99.90
15997;DHT22;8103;51.340;12.326;2022-09-27T09:00:59;11.50;99.90
15997;DHT22;8103;51.340;12.326;2022-09-27T09:03:30;11.50;99.90
15997;DHT22;8103;51.340;12.326;2022-09-27T09:06:22;11.50;99.90
15997;DHT22;8103;51.340;12.326;2022-09-27T09:09:12;11.50;99.90
15997;DHT22;8103;51.340;12.326;2022-09-27T09:15:17;11.70;99.90
15997;DHT22;8103;51.340;12.326;2022-09-27T09:21:01;12.00;99.90
15997;DHT22;8103;51.340;12.326;2022-09-27T09:24:11;12.30;99.90
15997;DHT22;8103;51.340;12.326;2022-09-27T09:30:03;12.50;99.90
15997;DHT22;8103;51.340;12.326;2022-09-27T09:32:54;12.70;99.90
15997;DHT22;8103;51.340;12.326;2022-09-27T09:36:00;12.80;99.90
15997;DHT22;8103;51.340;12.326;2022-09-27T09:38:46;12.70;99.90
15997;DHT22;8103;51.340;12.326;2022-09-27T09:41:21;12.60;99.90
15997;DHT22;8103;51.340;12.326;2022-09-27T09:46:32;12.50;99.90
15997;DHT22;8103;51.340;12.326;2022-09-27T09:49:08;12.20;99.90
15997;DHT22;8103;51.340;12.326;2022-09-27T09:51:47;12.00;99.90
15997;DHT22;8103;51.340;12.326;2022-09-27T09:54:23;11.80;99.90
15997;DHT22;8103;51.340;12.326;2022-09-27T09:59:58;11.80;99.90
15997;DHT22;8103;51.340;12.326;2022-09-27T10:02:34;11.80;99.90
15997;DHT22;8103;51.340;12.326;2022-09-27T10:05:04;11.90;99.90
15997;DHT22;8103;51.340;12.326;2022-09-27T10:07:35;12.10;99.90
15997;DHT22;8103;51.340;12.326;2022-09-27T10:10:05;12.20;99.90
15997;DHT22;8103;51.340;12.326;2022-09-27T10:12:34;12.30;99.90
15997;DHT22;8103;51.340;12.326;2022-09-27T10:15:03;12.20;99.90
15997;DHT22;8103;51.340;12.326;2022-09-27T10:17:41;12.30;99.90
15997;DHT22;8103;51.340;12.326;2022-09-27T10:20:29;12.40;99.90
15997;DHT22;8103;51.340;12.326;2022-09-27T10:23:05;12.60;99.90
15997;DHT22;8103;51.340;12.326;2022-09-27T10:25:45;12.70;99.90
15997;DHT22;8103;51.340;12.326;2022-09-27T10:28:40;12.70;99.90
15997;DHT22;8103;51.340;12.326;2022-09-27T10:31:15;12.70;99.90
15997;DHT22;8103;51.340;12.326;2022-09-27T10:33:53;12.70;99.90
15997;DHT22;8103;51.340;12.326;2022-09-27T10:36:26;12.80;99.90
15997;DHT22;8103;51.340;12.326;2022-09-27T10:39:00;13.00;99.90
15997;DHT22;8103;51.340;12.326;2022-09-27T10:41:38;13.10;99.90
15997;DHT22;8103;51.340;12.326;2022-09-27T10:46:43;13.00;99.90
15997;DHT22;8103;51.340;12.326;2022-09-27T10:49:31;12.90;99.90
15997;DHT22;8103;51.340;12.326;2022-09-27T10:52:05;12.90;99.90
15997;DHT22;8103;51.340;12.326;2022-09-27T10:54:38;12.80;99.90
15997;DHT22;8103;51.340;12.326;2022-09-27T10:57:26;12.80;99.90
15997;DHT22;8103;51.340;12.326;2022-09-27T11:00:04;12.80;99.90
15997;DHT22;8103;51.340;12.326;2022-09-27T11:02:34;12.80;99.90
15997;DHT22;8103;51.340;12.326;2022-09-27T11:05:33;13.00;99.90
15997;DHT22;8103;51.340;12.326;2022-09-27T11:08:18;13.40;99.90
15997;DHT22;8103;51.340;12.326;2022-09-27T11:13:37;14.20;99.90
15997;DHT22;8103;51.340;12.326;2022-09-27T11:38:29;14.50;99.90
15997;DHT22;8103;51.340;12.326;2022-09-27T11:41:44;14.10;99.90
15997;DHT22;8103;51.340;12.326;2022-09-27T11:44:22;13.70;99.90
15997;DHT22;8103;51.340;12.326;2022-09-27T11:47:10;13.50;99.90
15997;DHT22;8103;51.340;12.326;2022-09-27T11:58:59;12.60;99.90
15997;DHT22;8103;51.340;12.326;2022-09-27T12:01:55;12.60;99.90
15997;DHT22;8103;51.340;12.326;2022-09-27T12:04:50;13.00;99.90
15997;DHT22;8103;51.340;12.326;2022-09-27T12:07:39;13.60;99.90
15997;DHT22;8103;51.340;12.326;2022-09-27T12:10:15;14.20;99.90
15997;DHT22;8103;51.340;12.326;2022-09-27T12:12:45;14.60;99.90
15997;DHT22;8103;51.340;12.326;2022-09-27T12:15:21;14.70;99.90
15997;DHT22;8103;51.340;12.326;2022-09-27T12:17:53;14.90;99.90
15997;DHT22;8103;51.340;12.326;2022-09-27T12:20:27;14.90;99.90
15997;DHT22;8103;51.340;12.326;2022-09-27T12:23:01;14.70;99.90
15997;DHT22;8103;51.340;12.326;2022-09-27T12:25:33;14.40;99.90
15997;DHT22;8103;51.340;12.326;2022-09-27T12:30:55;14.10;99.90
15997;DHT22;8103;51.340;12.326;2022-09-27T12:36:23;14.10;99.90
15997;DHT22;8103;51.340;12.326;2022-09-27T12:39:44;14.20;99.90
15997;DHT22;8103;51.340;12.326;2022-09-27T12:42:13;14.30;99.90
15997;DHT22;8103;51.340;12.326;2022-09-27T12:44:42;14.60;99.90
15997;DHT22;8103;51.340;12.326;2022-09-27T12:47:24;15.20;99.90
15997;DHT22;8103;51.340;12.326;2022-09-27T12:52:48;17.50;96.60
15997;DHT22;8103;51.340;12.326;2022-09-27T13:07:07;16.60;94.70
15997;DHT22;8103;51.340;12.326;2022-09-27T13:12:48;17.20;97.20
15997;DHT22;8103;51.340;12.326;2022-09-27T13:15:34;19.40;91.80
15997;DHT22;8103;51.340;12.326;2022-09-27T13:18:04;21.30;81.20
15997;DHT22;8103;51.340;12.326;2022-09-27T13:20:41;22.20;71.90
15997;DHT22;8103;51.340;12.326;2022-09-27T13:25:53;20.10;71.60
15997;DHT22;8103;51.340;12.326;2022-09-27T13:31:02;17.80;81.20
15997;DHT22;8103;51.340;12.326;2022-09-27T13:33:51;17.50;82.70
15997;DHT22;8103;51.340;12.326;2022-09-27T13:44:29;23.20;62.60
15997;DHT22;8103;51.340;12.326;2022-09-27T13:47:02;24.70;54.10
15997;DHT22;8103;51.340;12.326;2022-09-27T13:49:36;24.00;53.50
15997;DHT22;8103;51.340;12.326;2022-09-27T13:52:34;24.50;52.90
15997;DHT22;8103;51.340;12.326;2022-09-27T13:55:05;25.40;48.60
15997;DHT22;8103;51.340;12.326;2022-09-27T13:57:50;23.90;50.00
15997;DHT22;8103;51.340;12.326;2022-09-27T14:00:26;22.00;54.00
15997;DHT22;8103;51.340;12.326;2022-09-27T14:03:17;20.40;58.60
15997;DHT22;8103;51.340;12.326;2022-09-27T14:05:58;18.80;62.10
15997;DHT22;8103;51.340;12.326;2022-09-27T14:08:51;17.70;66.40
15997;DHT22;8103;51.340;12.326;2022-09-27T14:11:43;16.90;70.10
15997;DHT22;8103;51.340;12.326;2022-09-27T14:14:21;16.30;72.80
15997;DHT22;8103;51.340;12.326;2022-09-27T14:16:49;15.90;75.70
15997;DHT22;8103;51.340;12.326;2022-09-27T14:19:21;15.60;78.70
15997;DHT22;8103;51.340;12.326;2022-09-27T14:21:49;15.10;79.60
15997;DHT22;8103;51.340;12.326;2022-09-27T14:24:29;14.80;80.60
15997;DHT22;8103;51.340;12.326;2022-09-27T14:27:10;14.60;82.30
15997;DHT22;8103;51.340;12.326;2022-09-27T14:29:43;14.40;82.40
15997;DHT22;8103;51.340;12.326;2022-09-27T14:32:15;14.30;82.10
15997;DHT22;8103;51.340;12.326;2022-09-27T14:34:43;14.20;83.20
15997;DHT22;8103;51.340;12.326;2022-09-27T14:37:19;14.40;83.60
15997;DHT22;8103;51.340;12.326;2022-09-27T14:42:26;15.20;82.00
15997;DHT22;8103;51.340;12.326;2022-09-27T14:47:45;15.70;78.60
15997;DHT22;8103;51.340;12.326;2022-09-27T14:50:19;15.60;78.20
15997;DHT22;8103;51.340;12.326;2022-09-27T14:52:47;15.30;78.00
15997;DHT22;8103;51.340;12.326;2022-09-27T14:55:18;15.10;79.40
15997;DHT22;8103;51.340;12.326;2022-09-27T14:57:55;15.00;79.80
15997;DHT22;8103;51.340;12.326;2022-09-27T15:00:32;14.90;78.70
15997;DHT22;8103;51.340;12.326;2022-09-27T15:03:04;14.80;78.70
15997;DHT22;8103;51.340;12.326;2022-09-27T15:05:32;14.70;78.60
15997;DHT22;8103;51.340;12.326;2022-09-27T15:08:02;14.60;78.90
15997;DHT22;8103;51.340;12.326;2022-09-27T15:10:32;14.40;78.30
15997;DHT22;8103;51.340;12.326;2022-09-27T15:13:00;14.30;78.50
15997;DHT22;8103;51.340;12.326;2022-09-27T15:15:35;14.20;78.80
15997;DHT22;8103;51.340;12.326;2022-09-27T15:18:39;14.10;78.80
15997;DHT22;8103;51.340;12.326;2022-09-27T15:21:10;14.10;79.40
15997;DHT22;8103;51.340;12.326;2022-09-27T15:23:40;14.10;80.10
15997;DHT22;8103;51.340;12.326;2022-09-27T15:26:17;14.10;80.60
15997;DHT22;8103;51.340;12.326;2022-09-27T15:28:47;14.10;81.00
15997;DHT22;8103;51.340;12.326;2022-09-27T15:31:15;14.10;81.40
15997;DHT22;8103;51.340;12.326;2022-09-27T15:33:53;14.00;82.00
15997;DHT22;8103;51.340;12.326;2022-09-27T15:36:53;13.90;82.70
15997;DHT22;8103;51.340;12.326;2022-09-27T15:39:32;13.90;83.00
15997;DHT22;8103;51.340;12.326;2022-09-27T15:42:11;13.90;83.30
15997;DHT22;8103;51.340;12.326;2022-09-27T15:44:48;13.80;84.40
15997;DHT22;8103;51.340;12.326;2022-09-27T15:47:40;13.70;85.10
15997;DHT22;8103;51.340;12.326;2022-09-27T15:52:49;13.70;85.50
15997;DHT22;8103;51.340;12.326;2022-09-27T15:55:22;13.60;86.30
15997;DHT22;8103;51.340;12.326;2022-09-27T15:57:54;13.50;87.10
15997;DHT22;8103;51.340;12.326;2022-09-27T16:00:24;13.40;88.30
15997;DHT22;8103;51.340;12.326;2022-09-27T16:02:51;13.30;89.10
15997;DHT22;8103;51.340;12.326;2022-09-27T16:05:19;13.30;90.00
15997;DHT22;8103;51.340;12.326;2022-09-27T16:07:47;13.20;90.30
15997;DHT22;8103;51.340;12.326;2022-09-27T16:10:37;13.20;90.70
15997;DHT22;8103;51.340;12.326;2022-09-27T16:13:04;13.20;91.10
15997;DHT22;8103;51.340;12.326;2022-09-27T16:15:31;13.20;91.40
15997;DHT22;8103;51.340;12.326;2022-09-27T16:17:58;13.20;91.70
15997;DHT22;8103;51.340;12.326;2022-09-27T16:20:26;13.10;91.90
15997;DHT22;8103;51.340;12.326;2022-09-27T16:22:54;13.10;92.30
15997;DHT22;8103;51.340;12.326;2022-09-27T16:25:22;13.00;92.80
15997;DHT22;8103;51.340;12.326;2022-09-27T16:27:49;13.00;93.00
15997;DHT22;8103;51.340;12.326;2022-09-27T16:30:17;13.00;93.20
15997;DHT22;8103;51.340;12.326;2022-09-27T16:32:45;12.90;93.20
15997;DHT22;8103;51.340;12.326;2022-09-27T16:35:14;12.90;93.50
15997;DHT22;8103;51.340;12.326;2022-09-27T16:37:41;12.80;93.80
15997;DHT22;8103;51.340;12.326;2022-09-27T16:40:09;12.80;93.80
15997;DHT22;8103;51.340;12.326;2022-09-27T16:42:40;12.70;93.90
15997;DHT22;8103;51.340;12.326;2022-09-27T16:45:11;12.70;94.00
15997;DHT22;8103;51.340;12.326;2022-09-27T16:47:42;12.60;94.10
15997;DHT22;8103;51.340;12.326;2022-09-27T16:50:12;12.60;94.40
15997;DHT22;8103;51.340;12.326;2022-09-27T16:52:58;12.50;94.60
15997;DHT22;8103;51.340;12.326;2022-09-27T16:55:26;12.50;94.80
15997;DHT22;8103;51.340;12.326;2022-09-27T16:57:57;12.40;95.20
15997;DHT22;8103;51.340;12.326;2022-09-27T17:00:24;12.40;95.50
15997;DHT22;8103;51.340;12.326;2022-09-27T17:02:51;12.40;95.80
15997;DHT22;8103;51.340;12.326;2022-09-27T17:05:19;12.40;96.20
15997;DHT22;8103;51.340;12.326;2022-09-27T17:07:52;12.30;96.40
15997;DHT22;8103;51.340;12.326;2022-09-27T17:10:20;12.30;96.90
15997;DHT22;8103;51.340;12.326;2022-09-27T17:12:47;12.30;96.90
15997;DHT22;8103;51.340;12.326;2022-09-27T17:15:15;12.20;97.20
15997;DHT22;8103;51.340;12.326;2022-09-27T17:17:43;12.20;97.60
15997;DHT22;8103;51.340;12.326;2022-09-27T17:20:10;12.10;97.70
15997;DHT22;8103;51.340;12.326;2022-09-27T17:22:37;12.10;97.90
15997;DHT22;8103;51.340;12.326;2022-09-27T17:25:04;12.00;98.30
15997;DHT22;8103;51.340;12.326;2022-09-27T17:27:32;12.00;98.40
15997;DHT22;8103;51.340;12.326;2022-09-27T17:30:00;11.90;98.80
15997;DHT22;8103;51.340;12.326;2022-09-27T17:32:27;11.80;99.10
15997;DHT22;8103;51.340;12.326;2022-09-27T17:34:54;11.80;99.20
15997;DHT22;8103;51.340;12.326;2022-09-27T17:37:21;11.70;99.30
15997;DHT22;8103;51.340;12.326;2022-09-27T17:39:48;11.70;99.90
15997;DHT22;8103;51.340;12.326;2022-09-27T17:42:15;11.70;99.80
15997;DHT22;8103;51.340;12.326;2022-09-27T17:44:44;11.60;99.80
15997;DHT22;8103;51.340;12.326;2022-09-27T17:47:12;11.60;99.90
15997;DHT22;8103;51.340;12.326;2022-09-27T17:49:57;11.60;99.90
15997;DHT22;8103;51.340;12.326;2022-09-27T17:52:42;11.60;99.90
15997;DHT22;8103;51.340;12.326;2022-09-27T17:55:09;11.50;99.90
15997;DHT22;8103;51.340;12.326;2022-09-27T17:57:36;11.40;99.90
15997;DHT22;8103;51.340;12.326;2022-09-27T18:00:03;11.40;99.90
15997;DHT22;8103;51.340;12.326;2022-09-27T18:02:31;11.30;99.90
15997;DHT22;8103;51.340;12.326;2022-09-27T18:04:58;11.30;99.90
15997;DHT22;8103;51.340;12.326;2022-09-27T18:07:24;11.20;99.90
15997;DHT22;8103;51.340;12.326;2022-09-27T18:09:51;11.20;99.90
15997;DHT22;8103;51.340;12.326;2022-09-27T18:12:18;11.10;99.90